Terminal Aerodrome Forecast
Issued by NWS

Home | Current Version | Previous Version | Text Only | Print | Product List | Glossary On
Versions: 1 2 3 4 5 6 7 8 9 10 11 12
000
FTUS45 KGJT 250520
TAFVEL
TAF
KVEL 250520Z 2506/2606 30003KT P6SM SKC
     FM252000 21006KT P6SM FEW140 SCT250
     FM252200 24007KT P6SM SCT120 SCT250
     FM260000 27006KT P6SM SCT250
     FM260400 35004KT P6SM SCT250=

USA.gov is the U.S. government's official web portal to all federal, state and local government web resources and services.